Rechercher aéroport 
image banner adimage banner adimage banner ad
image banner ad

CN27 - Hughes/Canoga Park

Situé à Canoga Park, United States

ICAO - CN27, IATA -

Données fournies par Airmate  

Information générale

Coordonnées: N34°13'17" W118°37'38"
Élévation : 845 feet MSL.
Variation magnétique : 14° East
Voir autres Aéroports à California

Données opérationnelles

Special qualification required
Heure actuelle UTC:
Heure actuelle locale:
Météo à : KVNY - Van Nuys ( 13 km )
METAR: KVNY 212351Z 18009KT 10SM CLR 37/03 A3001 RMK AO2 SLP152 T03720033 10389 20328 56010
TAF: KVNY 212336Z 2200/2224 17010KT P6SM SKC FM220300 VRB03KT P6SM SKC
Voir NOTAMs / SUP AIP / TFR affectant cet aéroport [VIEW]
Fréquences de communication: [VIEW]

Pistes:

Coordonnées de l'aéroport

Adresse: Canoga Park United States

Vue satellite de CN27